Time;durP1;ratioP1;P1;durP2;ratioP2;P2;SDS_P1;SDS_P2;PMS_P1;PMS_P2;Temp;Humidity;BMP_temperature;BMP_pressure;BME280_temperature;BME280_humidity;BME280_pressure;Samples;Min_cycle;Max_cycle;Signal;HPM_P1;HPM_P2
2024/01/27 00:01:43;;;;;;;25.75;7.47;;;5.80;99.90;;;;;;5028432;28;20041;-81
2024/01/27 00:04:09;;;;;;;19.38;6.10;;;5.80;99.90;;;;;;5031703;28;20036;-79
2024/01/27 00:06:34;;;;;;;20.13;6.93;;;5.80;99.90;;;;;;5029212;28;20390;-76
2024/01/27 00:09:00;;;;;;;31.73;7.32;;;5.70;99.90;;;;;;5032253;28;20030;-80
2024/01/27 00:11:26;;;;;;;29.50;7.72;;;5.70;99.90;;;;;;5030742;28;20281;-81
2024/01/27 00:13:52;;;;;;;32.28;6.85;;;5.70;99.90;;;;;;5028399;28;20565;-79
2024/01/27 00:16:17;;;;;;;21.13;6.35;;;5.60;99.90;;;;;;5032694;28;20437;-80
2024/01/27 00:18:43;;;;;;;15.40;5.78;;;5.60;99.90;;;;;;5031470;28;20025;-80
2024/01/27 00:21:09;;;;;;;15.20;5.72;;;5.60;99.90;;;;;;5029817;28;20390;-79
2024/01/27 00:23:35;;;;;;;20.95;5.65;;;5.60;99.90;;;;;;5029131;28;20079;-80
2024/01/27 00:26:01;;;;;;;23.20;5.97;;;5.60;99.90;;;;;;5030239;28;20385;-80
2024/01/27 00:28:27;;;;;;;18.88;5.55;;;5.50;99.90;;;;;;5030547;28;20100;-80
2024/01/27 00:30:52;;;;;;;19.73;6.32;;;5.40;99.90;;;;;;5028065;28;20109;-79
2024/01/27 00:33:18;;;;;;;18.83;5.50;;;5.40;99.90;;;;;;5029545;28;20052;-79
2024/01/27 00:35:44;;;;;;;23.50;6.53;;;5.50;99.90;;;;;;5027530;28;20039;-74
2024/01/27 00:38:09;;;;;;;20.80;5.97;;;5.50;99.90;;;;;;5033143;28;20491;-76
2024/01/27 00:40:35;;;;;;;19.55;6.10;;;5.50;99.90;;;;;;5029718;28;20025;-76
2024/01/27 00:43:04;;;;;;;23.90;6.75;;;5.50;99.90;;;;;;5029741;28;20444;-77
2024/01/27 00:45:30;;;;;;;21.42;6.50;;;5.50;99.90;;;;;;5027011;28;20405;-78
2024/01/27 00:47:56;;;;;;;23.98;6.85;;;5.40;99.90;;;;;;5027922;28;20037;-78
2024/01/27 00:50:22;;;;;;;20.30;6.45;;;5.30;99.90;;;;;;5031078;28;20108;-78
2024/01/27 00:52:48;;;;;;;24.88;6.65;;;5.20;99.90;;;;;;5015938;28;20038;-77
2024/01/27 00:55:14;;;;;;;22.90;6.50;;;5.20;99.90;;;;;;5027120;28;20029;-74
2024/01/27 00:57:40;;;;;;;21.00;6.13;;;5.20;99.90;;;;;;5024575;28;20674;-80
2024/01/27 01:00:07;;;;;;;30.20;7.47;;;5.20;99.90;;;;;;5021502;28;20112;-78
2024/01/27 01:02:33;;;;;;;25.40;7.45;;;5.20;99.90;;;;;;5016482;28;20044;-78
2024/01/27 01:04:59;;;;;;;29.30;7.20;;;5.10;99.90;;;;;;5031537;28;20029;-78
2024/01/27 01:07:25;;;;;;;24.63;6.80;;;5.10;99.90;;;;;;5031210;28;20056;-79
2024/01/27 01:09:50;;;;;;;21.45;7.32;;;5.10;99.90;;;;;;5036073;28;20032;-78
2024/01/27 01:12:16;;;;;;;25.52;7.03;;;5.10;99.90;;;;;;5050976;28;20024;-79
2024/01/27 01:14:43;;;;;;;22.38;7.15;;;5.10;99.90;;;;;;5052193;28;20032;-78
2024/01/27 01:17:09;;;;;;;24.80;6.97;;;5.10;99.90;;;;;;5041842;28;20018;-79
2024/01/27 01:19:36;;;;;;;27.20;8.00;;;5.00;99.90;;;;;;5020909;28;20029;-79
2024/01/27 01:22:02;;;;;;;19.48;6.40;;;5.00;99.90;;;;;;5031768;28;20021;-77
2024/01/27 01:24:29;;;;;;;23.92;6.85;;;5.00;99.90;;;;;;5030526;28;20463;-79
2024/01/27 01:26:55;;;;;;;23.23;7.22;;;5.00;99.90;;;;;;5031430;28;20025;-79
2024/01/27 01:29:21;;;;;;;23.42;6.78;;;5.00;99.90;;;;;;5030488;28;20068;-78
2024/01/27 01:31:47;;;;;;;23.58;6.38;;;5.00;99.90;;;;;;5030694;28;20037;-79
2024/01/27 01:34:13;;;;;;;19.25;6.80;;;5.00;99.90;;;;;;5037203;28;20040;-79
2024/01/27 01:36:39;;;;;;;23.70;7.18;;;5.00;99.90;;;;;;5052028;28;20523;-79
2024/01/27 01:39:06;;;;;;;29.27;6.95;;;4.90;99.90;;;;;;5050770;28;20036;-79
2024/01/27 01:41:31;;;;;;;23.98;6.70;;;4.90;99.90;;;;;;5053064;28;20118;-78
2024/01/27 01:43:57;;;;;;;19.90;5.95;;;4.90;99.90;;;;;;5055885;28;20498;-77
2024/01/27 01:46:23;;;;;;;25.40;6.78;;;5.00;99.90;;;;;;5056096;28;20021;-79
2024/01/27 01:48:49;;;;;;;19.33;6.03;;;4.90;99.90;;;;;;5055515;28;20115;-78
2024/01/27 01:51:18;;;;;;;20.90;7.40;;;4.90;99.90;;;;;;5052387;28;20025;-78
2024/01/27 01:53:48;;;;;;;26.20;7.32;;;4.90;99.90;;;;;;5035723;28;20028;-78
2024/01/27 01:56:17;;;;;;;18.55;6.50;;;4.90;99.90;;;;;;5035788;28;20585;-79
2024/01/27 01:58:42;;;;;;;27.60;7.13;;;4.80;99.90;;;;;;5034924;28;20116;-79
2024/01/27 02:01:09;;;;;;;26.20;7.32;;;4.80;99.90;;;;;;5034866;28;20109;-78
2024/01/27 02:03:35;;;;;;;26.20;7.60;;;4.80;99.90;;;;;;5035445;28;20034;-78
2024/01/27 02:06:00;;;;;;;25.73;7.05;;;4.80;99.90;;;;;;5035368;28;20079;-78
2024/01/27 02:08:26;;;;;;;19.20;6.85;;;4.80;99.90;;;;;;5034558;28;20025;-78
2024/01/27 02:10:52;;;;;;;19.75;7.00;;;4.90;99.90;;;;;;5035609;28;20028;-78
2024/01/27 02:13:19;;;;;;;25.77;7.03;;;4.90;99.90;;;;;;5051502;28;20433;-78
2024/01/27 02:15:44;;;;;;;28.38;6.85;;;4.90;99.90;;;;;;5055192;28;20024;-78
2024/01/27 02:18:10;;;;;;;31.13;7.65;;;4.80;99.90;;;;;;5036155;28;20386;-78
2024/01/27 02:20:37;;;;;;;28.02;7.28;;;4.80;99.90;;;;;;5014061;28;20058;-78
2024/01/27 02:23:04;;;;;;;25.63;6.68;;;4.80;99.90;;;;;;5015410;28;20057;-76
2024/01/27 02:25:31;;;;;;;22.88;6.55;;;4.70;99.90;;;;;;5031633;28;20060;-78
2024/01/27 02:27:56;;;;;;;28.88;8.00;;;4.70;99.90;;;;;;5035023;28;20033;-77
2024/01/27 02:30:22;;;;;;;27.98;8.18;;;4.80;99.90;;;;;;5034963;28;20034;-78
2024/01/27 02:32:48;;;;;;;28.52;8.20;;;4.70;99.90;;;;;;5035091;28;20033;-78
2024/01/27 02:35:14;;;;;;;29.90;7.25;;;4.70;99.90;;;;;;5034827;28;20021;-78
2024/01/27 02:37:43;;;;;;;28.23;7.53;;;4.80;99.90;;;;;;5034871;28;20044;-78
2024/01/27 02:40:09;;;;;;;34.22;8.52;;;4.80;99.90;;;;;;5035278;28;20034;-78
2024/01/27 02:42:36;;;;;;;33.05;7.38;;;4.80;99.90;;;;;;5033780;28;20463;-77
2024/01/27 02:45:03;;;;;;;24.45;7.78;;;4.80;99.90;;;;;;5035004;28;20017;-77
2024/01/27 02:47:29;;;;;;;26.83;7.57;;;4.80;99.90;;;;;;5034261;28;20029;-77
2024/01/27 02:49:54;;;;;;;21.77;7.38;;;4.80;99.90;;;;;;5034528;28;20021;-78
2024/01/27 02:52:20;;;;;;;25.00;8.15;;;4.70;99.90;;;;;;5054504;28;20032;-78
2024/01/27 02:54:47;;;;;;;30.13;7.93;;;4.70;99.90;;;;;;5043697;28;20482;-78
2024/01/27 02:57:13;;;;;;;22.25;7.50;;;4.70;99.90;;;;;;5034520;28;20030;-77
2024/01/27 02:59:39;;;;;;;28.63;8.20;;;4.80;99.90;;;;;;5034618;28;20079;-78
2024/01/27 03:02:08;;;;;;;25.80;8.35;;;4.80;99.90;;;;;;5033078;28;20474;-78
2024/01/27 03:04:33;;;;;;;22.05;7.20;;;4.80;99.90;;;;;;5034459;28;20067;-77
2024/01/27 03:06:59;;;;;;;23.95;7.57;;;4.80;99.90;;;;;;5034634;28;20417;-77
2024/01/27 03:09:25;;;;;;;24.55;7.88;;;4.80;99.90;;;;;;5034547;28;20056;-77
2024/01/27 03:11:51;;;;;;;27.08;8.85;;;4.80;99.90;;;;;;5034058;28;20030;-77
2024/01/27 03:14:16;;;;;;;24.48;7.88;;;4.70;99.90;;;;;;5034145;28;20089;-77
2024/01/27 03:16:44;;;;;;;26.80;7.55;;;4.70;99.90;;;;;;5020763;28;20074;-77
2024/01/27 03:19:10;;;;;;;24.30;8.80;;;4.60;99.90;;;;;;5024295;28;20021;-78
2024/01/27 03:21:36;;;;;;;29.73;9.23;;;4.50;99.90;;;;;;5012741;28;20026;-78
2024/01/27 03:24:01;;;;;;;30.00;8.80;;;4.60;99.90;;;;;;5019151;28;20112;-76
2024/01/27 03:26:27;;;;;;;28.33;8.68;;;4.60;99.90;;;;;;5034127;28;20032;-77
2024/01/27 03:28:53;;;;;;;23.98;7.63;;;4.60;99.90;;;;;;5032798;28;20034;-78
2024/01/27 03:31:19;;;;;;;20.80;7.85;;;4.60;99.90;;;;;;5033637;28;20053;-77
2024/01/27 03:33:44;;;;;;;22.92;8.05;;;4.60;99.90;;;;;;5032188;28;20021;-77
2024/01/27 03:36:11;;;;;;;33.33;8.52;;;4.60;99.90;;;;;;5033943;28;20026;-76
2024/01/27 03:38:38;;;;;;;33.08;8.85;;;4.60;99.90;;;;;;5033288;28;20049;-77
2024/01/27 03:41:04;;;;;;;30.02;8.00;;;4.60;99.90;;;;;;5032464;28;20021;-77
2024/01/27 03:43:31;;;;;;;20.42;7.45;;;4.60;99.90;;;;;;5033300;28;20490;-78
2024/01/27 03:45:57;;;;;;;30.02;8.88;;;4.60;99.90;;;;;;5032024;28;20471;-77
2024/01/27 03:48:23;;;;;;;24.02;8.73;;;4.50;99.90;;;;;;5047611;28;20482;-77
2024/01/27 03:50:49;;;;;;;24.95;7.65;;;4.50;99.90;;;;;;5053599;28;20021;-76
2024/01/27 03:53:14;;;;;;;19.75;8.55;;;4.50;99.90;;;;;;5052144;28;20414;-77
2024/01/27 03:55:40;;;;;;;24.92;8.43;;;4.50;99.90;;;;;;5052662;28;20417;-77
2024/01/27 03:58:06;;;;;;;30.45;8.40;;;4.50;99.90;;;;;;5051870;28;20027;-77
2024/01/27 04:00:33;;;;;;;20.00;9.13;;;4.40;99.90;;;;;;5052587;28;20680;-77
2024/01/27 04:03:02;;;;;;;26.05;8.70;;;4.40;99.90;;;;;;5052621;28;20448;-76
2024/01/27 04:05:29;;;;;;;26.73;8.07;;;4.40;99.90;;;;;;5051558;28;20044;-77
2024/01/27 04:07:55;;;;;;;26.00;8.40;;;4.30;99.90;;;;;;5053445;28;20029;-77
2024/01/27 04:10:22;;;;;;;27.13;7.55;;;4.30;99.90;;;;;;5053621;28;20108;-77
2024/01/27 04:12:48;;;;;;;24.23;8.90;;;4.30;99.90;;;;;;5053489;28;20453;-77
2024/01/27 04:15:13;;;;;;;21.95;7.60;;;4.30;99.90;;;;;;5052946;28;20104;-77
2024/01/27 04:17:40;;;;;;;28.73;8.20;;;4.20;99.90;;;;;;5037568;28;20028;-77
2024/01/27 04:20:06;;;;;;;23.58;8.02;;;4.20;99.90;;;;;;5033350;28;20074;-77
2024/01/27 04:22:35;;;;;;;24.85;7.75;;;4.30;99.90;;;;;;5032238;28;20033;-77
2024/01/27 04:25:01;;;;;;;19.45;7.95;;;4.30;99.90;;;;;;5033109;28;20022;-76
2024/01/27 04:27:27;;;;;;;18.38;7.18;;;4.30;99.90;;;;;;5033255;28;20026;-77
2024/01/27 04:29:53;;;;;;;28.33;8.10;;;4.30;99.90;;;;;;5033004;28;20018;-77
2024/01/27 04:32:21;;;;;;;25.75;7.20;;;4.30;99.90;;;;;;5033387;28;20036;-76
2024/01/27 04:34:47;;;;;;;21.98;7.68;;;4.40;99.90;;;;;;5033193;28;20033;-77
2024/01/27 04:37:13;;;;;;;26.02;7.30;;;4.40;99.90;;;;;;5033242;28;20032;-77
2024/01/27 04:39:39;;;;;;;24.70;7.82;;;4.40;99.90;;;;;;5032966;28;20029;-77
2024/01/27 04:42:06;;;;;;;23.50;8.30;;;4.40;99.90;;;;;;5026698;28;20494;-75
2024/01/27 04:44:32;;;;;;;22.27;8.88;;;4.40;99.90;;;;;;5021132;28;20053;-77
2024/01/27 04:46:58;;;;;;;30.90;9.02;;;4.40;99.90;;;;;;5026274;28;20071;-77
2024/01/27 04:49:24;;;;;;;22.42;7.78;;;4.20;99.90;;;;;;5022689;28;20034;-77
2024/01/27 04:51:49;;;;;;;22.00;7.75;;;4.20;99.90;;;;;;5013267;28;20030;-76
2024/01/27 04:54:15;;;;;;;22.77;8.30;;;4.20;99.90;;;;;;5011505;28;20032;-77
2024/01/27 04:56:41;;;;;;;19.90;7.28;;;4.10;99.90;;;;;;5015195;28;20068;-77
2024/01/27 04:59:07;;;;;;;16.85;7.25;;;4.20;99.90;;;;;;5030980;28;20409;-77
2024/01/27 05:01:33;;;;;;;29.88;8.38;;;4.20;99.90;;;;;;5031897;28;20498;-77
2024/01/27 05:03:58;;;;;;;29.88;8.73;;;4.20;99.90;;;;;;5031039;28;20048;-77
2024/01/27 05:06:24;;;;;;;27.15;7.78;;;4.20;99.90;;;;;;5032467;28;20033;-77
2024/01/27 05:08:50;;;;;;;20.55;7.38;;;4.20;99.90;;;;;;5031242;28;20025;-77
2024/01/27 05:11:24;;;;;;;20.60;7.68;;;4.20;99.90;;;;;;5032387;28;20245;-77
2024/01/27 05:13:50;;;;;;;19.77;8.48;;;4.10;99.90;;;;;;5031952;28;20021;-77
2024/01/27 05:16:16;;;;;;;23.17;7.43;;;4.00;99.90;;;;;;5031316;28;20048;-77
2024/01/27 05:18:41;;;;;;;22.42;8.57;;;4.00;99.90;;;;;;5032509;28;20431;-76
2024/01/27 05:21:07;;;;;;;24.42;8.68;;;4.00;99.90;;;;;;5032159;28;20029;-75
2024/01/27 05:23:33;;;;;;;24.52;8.23;;;4.00;99.90;;;;;;5032444;28;20091;-77
2024/01/27 05:25:59;;;;;;;26.63;9.05;;;4.00;99.90;;;;;;5030288;28;20014;-76
2024/01/27 05:28:24;;;;;;;42.30;9.27;;;4.00;99.90;;;;;;5032161;28;20389;-75
2024/01/27 05:30:50;;;;;;;17.70;8.27;;;4.00;99.90;;;;;;5032283;28;20033;-77
2024/01/27 05:33:16;;;;;;;28.80;8.68;;;3.90;99.90;;;;;;5040784;28;20028;-77
2024/01/27 05:35:42;;;;;;;31.13;8.55;;;3.90;99.90;;;;;;5051799;28;20017;-77
2024/01/27 05:38:08;;;;;;;34.70;9.90;;;4.00;99.90;;;;;;5051050;28;20040;-77
2024/01/27 05:40:33;;;;;;;28.95;9.13;;;4.00;99.90;;;;;;5027106;28;20079;-77
2024/01/27 05:42:59;;;;;;;31.10;9.40;;;4.00;99.90;;;;;;5013083;28;20042;-77
2024/01/27 05:45:26;;;;;;;29.58;9.13;;;3.90;99.90;;;;;;5014877;28;20368;-77
2024/01/27 05:47:52;;;;;;;26.88;9.13;;;3.90;99.90;;;;;;5012586;28;20029;-77
2024/01/27 05:50:18;;;;;;;33.45;10.18;;;3.90;99.90;;;;;;5011002;28;20026;-77
2024/01/27 05:52:43;;;;;;;23.08;9.35;;;3.90;99.90;;;;;;5051446;28;20021;-77
2024/01/27 05:55:11;;;;;;;31.95;9.40;;;3.80;99.90;;;;;;5051240;28;20029;-77
2024/01/27 05:57:37;;;;;;;25.13;9.60;;;3.80;99.90;;;;;;5051870;28;20028;-77
2024/01/27 06:00:03;;;;;;;26.92;9.63;;;3.80;99.90;;;;;;5051893;28;20084;-77
2024/01/27 06:02:29;;;;;;;27.15;8.82;;;3.80;99.90;;;;;;5051592;28;20044;-77
2024/01/27 06:04:54;;;;;;;25.83;9.10;;;3.80;99.90;;;;;;5051285;28;20063;-76
2024/01/27 06:07:20;;;;;;;27.50;9.13;;;3.70;99.90;;;;;;5051834;28;20435;-75
2024/01/27 06:09:46;;;;;;;32.25;10.38;;;3.70;99.90;;;;;;5049431;28;20024;-77
2024/01/27 06:12:11;;;;;;;32.97;10.30;;;3.70;99.90;;;;;;5034505;28;20470;-77
2024/01/27 06:14:37;;;;;;;28.85;10.00;;;3.70;99.90;;;;;;5030781;28;20395;-76
2024/01/27 06:17:05;;;;;;;35.67;10.13;;;3.70;99.90;;;;;;5031816;28;20104;-77
2024/01/27 06:19:31;;;;;;;26.25;10.52;;;3.60;99.90;;;;;;5031679;28;20474;-77
2024/01/27 06:21:56;;;;;;;35.20;9.75;;;3.60;99.90;;;;;;5031921;28;20017;-77
2024/01/27 06:24:22;;;;;;;32.50;11.23;;;3.60;99.90;;;;;;5030930;28;20036;-77
2024/01/27 06:26:48;;;;;;;28.27;9.43;;;3.60;99.90;;;;;;5031080;28;20140;-77
2024/01/27 06:29:14;;;;;;;27.42;9.30;;;3.70;99.90;;;;;;5032422;28;20029;-75
2024/01/27 06:31:39;;;;;;;21.90;7.78;;;3.70;99.90;;;;;;5022298;28;20066;-77
2024/01/27 06:34:05;;;;;;;26.25;9.60;;;3.60;99.90;;;;;;5015709;28;20490;-77
2024/01/27 06:36:32;;;;;;;33.53;10.10;;;3.50;99.90;;;;;;5026062;28;20021;-76
2024/01/27 06:38:58;;;;;;;34.33;10.45;;;3.50;99.90;;;;;;5015538;28;20026;-77
2024/01/27 06:41:23;;;;;;;36.83;11.18;;;3.50;99.90;;;;;;5014835;28;20029;-76
2024/01/27 06:43:49;;;;;;;34.80;11.85;;;3.50;99.90;;;;;;5015445;28;20041;-76
2024/01/27 06:46:15;;;;;;;31.02;11.45;;;3.50;99.90;;;;;;5014870;28;20150;-77
2024/01/27 06:48:41;;;;;;;29.80;10.98;;;3.50;99.90;;;;;;5033354;28;20539;-77
2024/01/27 06:51:06;;;;;;;39.65;11.98;;;3.50;99.90;;;;;;5035103;28;20036;-76
2024/01/27 06:53:32;;;;;;;27.33;11.32;;;3.60;99.90;;;;;;5034153;28;20025;-77
2024/01/27 06:55:58;;;;;;;29.08;12.02;;;3.50;99.90;;;;;;5032678;28;20026;-77
2024/01/27 06:58:23;;;;;;;33.90;11.38;;;3.60;99.90;;;;;;5032207;28;20109;-75
2024/01/27 07:00:49;;;;;;;28.05;11.43;;;3.60;99.90;;;;;;5014230;28;20390;-77
2024/01/27 07:03:15;;;;;;;41.00;13.10;;;3.60;99.90;;;;;;5021717;28;20087;-77
2024/01/27 07:05:41;;;;;;;38.00;12.65;;;3.60;99.90;;;;;;5034459;28;20099;-77
2024/01/27 07:08:07;;;;;;;36.75;12.40;;;3.60;99.90;;;;;;5016268;28;20061;-77
2024/01/27 07:10:34;;;;;;;37.35;12.75;;;3.60;99.90;;;;;;5035875;28;20378;-78
2024/01/27 07:13:00;;;;;;;35.72;13.18;;;3.60;99.90;;;;;;5021746;28;20394;-76
2024/01/27 07:15:26;;;;;;;41.75;13.55;;;3.60;99.90;;;;;;5014202;28;20056;-77
2024/01/27 07:17:53;;;;;;;39.72;13.50;;;3.60;99.90;;;;;;5023333;28;20024;-76
2024/01/27 07:20:20;;;;;;;41.53;15.10;;;3.60;99.90;;;;;;5033559;28;20100;-76
2024/01/27 07:22:47;;;;;;;37.92;14.68;;;3.60;99.90;;;;;;5032482;28;20068;-76
2024/01/27 07:25:13;;;;;;;45.92;14.70;;;3.50;99.90;;;;;;5032854;28;20248;-76
2024/01/27 07:27:39;;;;;;;45.70;16.65;;;3.50;99.90;;;;;;5033622;28;20033;-76
2024/01/27 07:30:08;;;;;;;43.10;15.80;;;3.50;99.90;;;;;;5032991;28;20020;-77
2024/01/27 07:32:34;;;;;;;42.15;14.80;;;3.40;99.90;;;;;;5034823;28;20083;-77
2024/01/27 07:35:07;;;;;;;44.45;15.07;;;3.50;99.90;;;;;;5053751;28;20021;-77
2024/01/27 07:37:33;;;;;;;38.50;14.63;;;3.50;99.90;;;;;;5024993;28;20026;-77
2024/01/27 07:39:58;;;;;;;54.17;14.45;;;3.50;99.90;;;;;;5017858;28;20036;-77
2024/01/27 07:42:24;;;;;;;35.22;13.80;;;3.50;99.90;;;;;;5024359;28;20487;-77
2024/01/27 07:44:50;;;;;;;48.38;13.80;;;3.50;99.90;;;;;;5018660;28;20123;-75
2024/01/27 07:47:16;;;;;;;44.13;14.35;;;3.40;99.90;;;;;;5022594;28;20378;-77
2024/01/27 07:49:44;;;;;;;45.22;14.77;;;3.50;99.90;;;;;;5021718;28;20018;-78
2024/01/27 07:52:10;;;;;;;38.55;14.93;;;3.50;99.90;;;;;;5014607;28;20029;-76
2024/01/27 07:54:38;;;;;;;44.50;15.27;;;3.50;99.90;;;;;;5022169;28;20030;-75
2024/01/27 07:57:05;;;;;;;36.30;15.05;;;3.50;99.90;;;;;;5028797;28;20363;-76
2024/01/27 07:59:31;;;;;;;42.15;14.90;;;3.50;99.90;;;;;;5020942;28;20371;-75
2024/01/27 08:01:56;;;;;;;39.17;14.27;;;3.50;99.90;;;;;;5024362;28;20061;-76
2024/01/27 08:04:22;;;;;;;40.90;14.25;;;3.50;99.90;;;;;;5027354;28;20040;-77
2024/01/27 08:06:51;;;;;;;42.30;16.30;;;3.40;99.90;;;;;;5026385;28;20124;-77
2024/01/27 08:09:18;;;;;;;51.13;17.15;;;3.50;99.90;;;;;;5026454;28;20029;-77
2024/01/27 08:11:44;;;;;;;53.72;17.65;;;3.50;99.90;;;;;;5027091;28;20022;-77
2024/01/27 08:14:09;;;;;;;41.47;16.73;;;3.50;99.90;;;;;;5024360;28;20072;-74
2024/01/27 08:16:35;;;;;;;44.63;18.13;;;3.60;99.90;;;;;;5023771;28;20014;-76
2024/01/27 08:19:01;;;;;;;42.55;16.52;;;3.60;99.90;;;;;;5022570;28;20048;-76
2024/01/27 08:21:27;;;;;;;47.67;16.35;;;3.60;99.90;;;;;;5029319;28;20072;-78
2024/01/27 08:23:53;;;;;;;37.25;14.43;;;3.60;99.90;;;;;;5020402;28;20026;-74
2024/01/27 08:26:20;;;;;;;33.72;14.82;;;3.60;99.90;;;;;;5021146;28;20505;-77
2024/01/27 08:28:47;;;;;;;46.22;14.82;;;3.70;99.90;;;;;;5023857;28;20021;-79
2024/01/27 08:31:12;;;;;;;46.70;15.73;;;3.70;99.90;;;;;;5023076;28;20388;-76
2024/01/27 08:33:38;;;;;;;38.17;15.93;;;3.70;99.90;;;;;;5026835;28;20024;-79
2024/01/27 08:36:04;;;;;;;36.28;15.18;;;3.80;99.90;;;;;;5023793;28;20036;-76
2024/01/27 08:38:30;;;;;;;42.45;15.68;;;3.90;99.90;;;;;;5024339;28;20053;-77
2024/01/27 08:40:56;;;;;;;30.65;13.85;;;3.90;99.90;;;;;;5031247;28;20025;-76
2024/01/27 08:43:21;;;;;;;34.55;13.65;;;3.90;99.90;;;;;;5024691;28;20029;-75
2024/01/27 08:45:47;;;;;;;49.20;15.05;;;4.00;99.90;;;;;;5021925;28;20062;-74
2024/01/27 08:48:13;;;;;;;35.92;13.93;;;4.10;99.90;;;;;;5024076;28;20036;-73
2024/01/27 08:50:39;;;;;;;34.58;13.77;;;4.10;99.90;;;;;;5022931;28;20490;-75
2024/01/27 08:53:05;;;;;;;44.83;13.50;;;4.10;99.90;;;;;;5023492;28;20026;-75
2024/01/27 08:55:30;;;;;;;36.28;14.07;;;4.20;99.90;;;;;;5026035;28;20047;-75
2024/01/27 08:57:57;;;;;;;37.30;13.57;;;4.20;99.90;;;;;;5021838;28;20066;-77
2024/01/27 09:00:22;;;;;;;41.13;14.25;;;4.20;99.90;;;;;;5021973;28;20398;-74
2024/01/27 09:02:48;;;;;;;36.38;15.13;;;4.30;99.90;;;;;;5017898;28;20039;-77
2024/01/27 09:05:14;;;;;;;40.53;13.60;;;4.30;99.90;;;;;;5029308;28;20478;-76
2024/01/27 09:07:40;;;;;;;35.20;14.05;;;4.30;99.90;;;;;;5022757;28;20113;-74
2024/01/27 09:10:07;;;;;;;38.08;12.90;;;4.40;99.90;;;;;;5024051;28;20018;-74
2024/01/27 09:12:32;;;;;;;44.45;13.02;;;4.40;99.90;;;;;;5022721;28;20018;-75
2024/01/27 09:14:58;;;;;;;42.15;13.77;;;4.50;99.90;;;;;;5023256;28;20028;-74
2024/01/27 09:17:24;;;;;;;31.15;12.68;;;4.50;99.90;;;;;;5021503;28;20041;-74
2024/01/27 09:19:50;;;;;;;38.63;13.63;;;4.60;99.90;;;;;;5033696;28;20021;-76
2024/01/27 09:22:16;;;;;;;41.72;14.85;;;4.60;99.90;;;;;;5029683;28;20086;-73
2024/01/27 09:24:42;;;;;;;39.80;14.23;;;4.70;99.90;;;;;;5023807;28;20026;-77
2024/01/27 09:27:07;;;;;;;31.50;13.32;;;4.70;99.90;;;;;;5022777;28;20029;-78
2024/01/27 09:29:33;;;;;;;35.05;12.63;;;4.80;99.90;;;;;;5028318;28;20098;-77
2024/01/27 09:31:59;;;;;;;27.80;12.23;;;4.90;99.90;;;;;;5025986;28;20152;-78
2024/01/27 09:34:25;;;;;;;34.88;12.68;;;4.90;99.90;;;;;;5019607;28;20021;-81
2024/01/27 09:36:51;;;;;;;37.58;11.70;;;4.90;99.90;;;;;;5025118;28;20034;-79
2024/01/27 09:39:16;;;;;;;33.83;12.20;;;4.90;99.90;;;;;;5027691;28;20026;-75
2024/01/27 09:41:42;;;;;;;34.17;11.63;;;4.90;99.90;;;;;;5019288;28;20029;-75
2024/01/27 09:44:12;;;;;;;31.30;13.38;;;4.90;99.90;;;;;;5023079;28;20734;-76
2024/01/27 09:46:38;;;;;;;33.50;11.30;;;5.10;99.90;;;;;;5018739;28;20506;-78
2024/01/27 09:49:05;;;;;;;35.08;12.85;;;5.20;99.90;;;;;;5027630;28;20061;-76
2024/01/27 09:51:31;;;;;;;28.73;10.60;;;5.20;99.90;;;;;;5023663;28;20017;-75
2024/01/27 09:53:57;;;;;;;27.30;10.05;;;5.30;99.90;;;;;;5018076;28;20034;-77
2024/01/27 09:56:23;;;;;;;28.77;10.27;;;5.40;99.90;;;;;;5019974;28;20033;-77
2024/01/27 09:58:50;;;;;;;35.10;10.57;;;5.40;99.90;;;;;;5016265;28;20106;-78
2024/01/27 10:01:19;;;;;;;26.48;9.25;;;5.60;99.90;;;;;;5023295;28;20088;-78
2024/01/27 10:03:46;;;;;;;30.40;9.23;;;5.70;99.90;;;;;;5025812;28;20056;-78
2024/01/27 10:06:14;;;;;;;27.02;9.60;;;5.80;99.90;;;;;;5025458;28;20021;-76
2024/01/27 10:08:40;;;;;;;26.95;8.30;;;5.90;99.90;;;;;;5032767;28;20066;-78
2024/01/27 10:11:09;;;;;;;27.98;10.43;;;6.00;99.90;;;;;;5028906;28;20014;-80
2024/01/27 10:13:36;;;;;;;28.67;9.50;;;6.00;99.90;;;;;;5028966;28;20383;-79
2024/01/27 10:16:06;;;;;;;32.90;8.70;;;6.10;99.90;;;;;;5021849;28;20069;-80
2024/01/27 10:18:33;;;;;;;31.55;8.75;;;6.30;99.90;;;;;;5029792;28;20148;-72
2024/01/27 10:20:59;;;;;;;21.42;7.63;;;6.30;99.90;;;;;;5025134;28;20490;-81
2024/01/27 10:23:25;;;;;;;29.45;8.45;;;6.50;99.90;;;;;;5027019;28;20041;-83
2024/01/27 10:25:52;;;;;;;29.85;8.95;;;6.50;99.90;;;;;;5027243;28;20025;-79
2024/01/27 10:28:18;;;;;;;23.63;7.38;;;6.60;99.90;;;;;;5015396;28;20056;-79
2024/01/27 10:30:44;;;;;;;23.17;7.70;;;6.70;99.90;;;;;;5015244;28;20101;-77
2024/01/27 10:33:31;;;;;;;20.48;7.05;;;6.80;99.90;;;;;;5017742;28;20064;-77
2024/01/27 10:36:00;;;;;;;24.35;7.38;;;6.80;99.90;;;;;;5016838;28;20030;-79
2024/01/27 10:38:39;;;;;;;23.17;7.63;;;6.90;99.90;;;;;;5024127;28;20028;-81
2024/01/27 10:41:12;;;;;;;26.92;7.88;;;6.90;99.90;;;;;;5020630;28;20140;-79
2024/01/27 10:43:39;;;;;;;27.13;7.05;;;7.00;99.90;;;;;;5015518;28;20037;-79
2024/01/27 10:46:07;;;;;;;19.00;6.30;;;7.00;99.90;;;;;;5033229;28;20346;-79
2024/01/27 10:48:36;;;;;;;21.50;7.30;;;7.00;99.90;;;;;;5033703;28;20383;-81
2024/01/27 10:51:10;;;;;;;24.77;7.22;;;7.10;99.90;;;;;;5033592;28;20029;-81
2024/01/27 10:53:39;;;;;;;18.70;6.60;;;7.10;99.90;;;;;;5036384;28;20386;-81
2024/01/27 10:56:09;;;;;;;23.15;6.80;;;7.10;99.90;;;;;;5033579;28;20013;-82
2024/01/27 10:58:40;;;;;;;26.42;6.43;;;7.20;99.90;;;;;;5035673;28;20473;-83
2024/01/27 11:01:09;;;;;;;22.35;6.65;;;7.30;99.90;;;;;;5032992;28;20029;-77
2024/01/27 11:03:41;;;;;;;19.77;6.07;;;7.40;99.90;;;;;;5034056;28;20363;-78
2024/01/27 11:06:07;;;;;;;27.63;6.72;;;7.50;99.90;;;;;;5034149;28;20022;-80
2024/01/27 11:08:38;;;;;;;18.90;5.68;;;7.60;99.90;;;;;;5033277;28;20029;-77
2024/01/27 11:11:04;;;;;;;23.65;5.93;;;7.60;99.90;;;;;;5034304;28;20022;-81
2024/01/27 11:13:34;;;;;;;17.73;5.63;;;7.60;99.90;;;;;;5033847;28;20022;-78
2024/01/27 11:15:59;;;;;;;18.55;5.50;;;7.50;99.90;;;;;;5033580;28;20065;-77
2024/01/27 11:18:26;;;;;;;16.40;5.03;;;7.50;99.90;;;;;;5029337;28;20049;-77
2024/01/27 11:20:55;;;;;;;11.55;4.80;;;7.50;99.90;;;;;;5000027;28;20045;-81
2024/01/27 11:23:31;;;;;;;22.42;5.82;;;7.50;99.90;;;;;;5027709;28;20037;-81
2024/01/27 11:26:07;;;;;;;20.45;5.15;;;7.60;99.90;;;;;;5028447;28;20037;-81
2024/01/27 11:28:33;;;;;;;18.10;4.72;;;7.60;99.90;;;;;;5033261;28;20021;-81
2024/01/27 11:31:03;;;;;;;15.90;4.60;;;7.70;99.90;;;;;;5029752;28;20040;-80
2024/01/27 11:33:29;;;;;;;19.95;4.50;;;7.70;99.90;;;;;;5032685;28;20041;-80
2024/01/27 11:36:05;;;;;;;15.25;4.72;;;7.80;99.90;;;;;;5029879;28;20119;-80
2024/01/27 11:38:32;;;;;;;17.15;4.63;;;7.90;99.90;;;;;;5027991;28;22315;-82
2024/01/27 11:41:01;;;;;;;16.08;4.97;;;7.90;99.90;;;;;;5032610;28;20025;-78
2024/01/27 11:43:27;;;;;;;20.33;5.50;;;8.00;99.90;;;;;;5031877;28;20033;-79
2024/01/27 11:46:01;;;;;;;11.30;4.13;;;8.00;99.90;;;;;;5028471;28;20057;-79
2024/01/27 11:48:29;;;;;;;18.42;5.25;;;8.10;99.90;;;;;;5030207;28;20021;-76
2024/01/27 11:51:11;;;;;;;13.70;4.88;;;8.10;99.90;;;;;;5029919;28;20116;-79
2024/01/27 11:53:37;;;;;;;18.87;4.30;;;8.10;99.90;;;;;;5031877;28;20029;-82
2024/01/27 11:56:04;;;;;;;16.48;4.53;;;8.10;99.90;;;;;;5030855;28;20268;-76
2024/01/27 11:58:30;;;;;;;10.55;3.95;;;8.20;99.90;;;;;;5029499;28;20024;-74
2024/01/27 12:01:00;;;;;;;22.63;4.80;;;8.20;99.90;;;;;;5029924;28;20038;-79
2024/01/27 12:03:27;;;;;;;13.00;3.90;;;8.30;99.90;;;;;;5029182;28;20116;-78
2024/01/27 12:05:53;;;;;;;17.60;4.32;;;8.40;99.90;;;;;;5026742;28;20126;-75
2024/01/27 12:08:18;;;;;;;17.92;4.40;;;8.30;99.90;;;;;;5031524;28;20152;-79
2024/01/27 12:10:44;;;;;;;22.70;4.20;;;8.40;99.90;;;;;;5028094;28;20037;-77
2024/01/27 12:13:10;;;;;;;14.68;4.35;;;8.30;99.90;;;;;;5030231;28;20021;-79
2024/01/27 12:15:36;;;;;;;18.92;5.43;;;8.30;99.90;;;;;;5029259;28;20021;-77
2024/01/27 12:18:04;;;;;;;17.50;4.43;;;8.30;99.90;;;;;;5029808;28;21564;-80
2024/01/27 12:20:30;;;;;;;14.77;4.90;;;8.30;99.90;;;;;;5029688;28;20033;-79
2024/01/27 12:23:06;;;;;;;21.45;4.18;;;8.30;99.90;;;;;;5029955;28;20080;-80
2024/01/27 12:25:32;;;;;;;20.73;4.03;;;8.30;99.90;;;;;;5026449;28;20052;-78
2024/01/27 12:28:11;;;;;;;16.52;4.53;;;8.40;99.90;;;;;;5031377;28;20018;-79
2024/01/27 12:30:36;;;;;;;18.60;4.53;;;8.40;99.90;;;;;;5028845;28;20033;-77
2024/01/27 12:33:11;;;;;;;17.52;3.83;;;8.40;99.90;;;;;;5035644;28;20025;-78
2024/01/27 12:35:37;;;;;;;17.25;4.80;;;8.40;99.90;;;;;;5027411;28;20026;-78
2024/01/27 12:38:06;;;;;;;20.35;4.57;;;8.40;99.90;;;;;;5032621;28;20452;-78
2024/01/27 12:40:31;;;;;;;13.68;4.07;;;8.40;99.90;;;;;;5030418;28;20018;-78